Time;durP1;ratioP1;P1;durP2;ratioP2;P2;SDS_P1;SDS_P2;PMS_P1;PMS_P2;Temp;Humidity;BMP_temperature;BMP_pressure;BME280_temperature;BME280_humidity;BME280_pressure;Samples;Min_cycle;Max_cycle;Signal;HPM_P1;HPM_P2
2022/03/24 00:00:46;;;;;;;12.90;11.53;;;14.50;85.30;;;15.24;42.12;102464.31;4914250;28;100262;-86
2022/03/24 00:05:37;;;;;;;14.07;12.33;;;14.50;85.40;;;15.24;42.13;102469.63;4919751;22;124614;-63
2022/03/24 00:08:06;;;;;;;13.97;12.37;;;14.40;86.40;;;15.28;41.99;102463.31;4916464;28;98211;-63
2022/03/24 00:10:38;;;;;;;12.53;11.20;;;14.60;86.90;;;15.34;42.18;102465.81;4912734;28;97258;-61
2022/03/24 00:13:14;;;;;;;12.37;9.90;;;14.70;87.00;;;15.49;41.54;102460.06;4914078;28;100251;-63
2022/03/24 00:15:39;;;;;;;10.63;9.53;;;15.00;87.10;;;15.63;41.47;102462.38;4912998;28;102062;-63
2022/03/24 00:18:07;;;;;;;18.37;14.27;;;15.30;84.80;;;15.65;41.31;102461.41;4914965;28;98107;-61
2022/03/24 00:20:34;;;;;;;15.83;13.00;;;15.30;81.60;;;15.56;41.23;102456.31;4910741;28;98056;-62
2022/03/24 00:23:00;;;;;;;14.07;12.40;;;15.00;83.10;;;15.48;41.44;102453.00;4912044;28;98617;-63
2022/03/24 00:25:26;;;;;;;22.87;17.93;;;14.80;84.20;;;15.37;41.76;102455.97;4926443;28;98727;-61
2022/03/24 00:27:52;;;;;;;18.40;16.07;;;14.60;85.70;;;15.31;42.02;102460.56;4915335;28;97321;-62
2022/03/24 00:30:18;;;;;;;16.30;13.73;;;14.40;85.70;;;15.26;42.17;102471.31;4912895;28;96901;-62
2022/03/24 00:32:44;;;;;;;12.40;11.10;;;14.40;86.80;;;15.26;42.09;102457.16;4915088;28;98464;-62
2022/03/24 00:35:10;;;;;;;11.77;10.57;;;14.40;86.80;;;15.26;42.21;102446.53;4915376;28;97697;-63
2022/03/24 00:37:36;;;;;;;12.77;10.23;;;14.50;87.70;;;15.32;42.16;102443.69;4907655;28;97401;-63
2022/03/24 00:40:07;;;;;;;12.07;9.73;;;14.60;88.20;;;15.41;41.78;102446.09;4916328;28;97152;-63
2022/03/24 00:42:36;;;;;;;12.13;10.33;;;14.90;86.60;;;15.48;41.82;102447.69;4906275;28;97466;-63
2022/03/24 00:45:05;;;;;;;11.80;10.03;;;15.00;85.30;;;15.50;41.67;102445.84;4924231;28;99154;-63
2022/03/24 00:47:35;;;;;;;18.73;15.13;;;14.90;85.70;;;15.50;41.48;102443.19;4902667;28;96984;-63
2022/03/24 00:50:01;;;;;;;21.23;18.37;;;14.90;83.70;;;15.40;41.48;102444.34;4907368;28;97417;-63
2022/03/24 00:52:28;;;;;;;12.47;10.60;;;14.70;83.90;;;15.29;42.08;102441.13;4920112;28;97036;-63
2022/03/24 00:54:54;;;;;;;12.07;10.53;;;14.40;86.90;;;15.27;42.16;102448.25;4911159;28;97451;-63
2022/03/24 00:57:19;;;;;;;13.27;11.27;;;14.40;86.70;;;15.25;42.14;102447.44;4903719;28;97374;-62
2022/03/24 00:59:46;;;;;;;12.43;11.13;;;14.40;86.20;;;15.22;42.22;102440.41;4912754;28;96961;-63
2022/03/24 01:02:11;;;;;;;12.30;10.57;;;14.40;86.80;;;15.23;42.35;102441.28;4909415;28;97571;-64
2022/03/24 01:04:38;;;;;;;12.03;10.17;;;14.40;88.10;;;15.27;42.23;102438.50;4902465;28;111928;-63
2022/03/24 01:07:08;;;;;;;10.90;9.80;;;14.60;88.20;;;15.34;41.99;102439.22;4894366;28;97160;-62
2022/03/24 01:09:39;;;;;;;11.77;10.07;;;14.70;86.90;;;15.43;42.01;102439.81;4823966;28;98299;-62
2022/03/24 01:12:06;;;;;;;11.07;9.97;;;14.90;87.60;;;15.57;41.62;102435.91;4906593;28;97215;-62
2022/03/24 01:14:35;;;;;;;10.57;9.47;;;15.20;86.20;;;15.65;41.23;102437.47;4916003;28;97756;-62
2022/03/24 01:17:02;;;;;;;10.67;9.57;;;15.30;85.20;;;15.73;41.25;102440.78;4921870;28;97178;-63
2022/03/24 01:19:28;;;;;;;12.37;11.07;;;15.40;84.10;;;15.79;40.98;102430.88;4907096;28;96845;-62
2022/03/24 01:21:54;;;;;;;17.47;14.43;;;15.50;82.50;;;15.73;41.14;102438.13;4922470;28;97750;-63
2022/03/24 01:24:20;;;;;;;19.33;14.50;;;15.30;82.90;;;15.69;41.22;102441.78;4916180;28;97286;-63
2022/03/24 01:26:47;;;;;;;15.13;12.80;;;15.10;82.90;;;15.63;41.25;102449.97;4921436;28;97488;-63
2022/03/24 01:29:13;;;;;;;13.13;10.63;;;15.00;84.50;;;15.52;41.29;102441.38;4940065;28;97015;-68
2022/03/24 01:31:42;;;;;;;16.40;13.80;;;14.80;83.90;;;15.42;41.49;102438.06;4917791;28;97069;-63
2022/03/24 01:34:09;;;;;;;17.30;14.37;;;14.60;85.50;;;15.38;41.80;102438.22;4917560;28;97340;-63
2022/03/24 01:36:35;;;;;;;10.90;9.83;;;14.50;85.20;;;15.34;41.92;102444.53;4902417;28;97761;-63
2022/03/24 01:39:02;;;;;;;12.80;11.50;;;14.50;87.60;;;15.33;41.85;102438.31;4926988;28;97383;-62
2022/03/24 01:41:27;;;;;;;11.17;10.00;;;14.60;86.40;;;15.34;41.88;102428.59;4914995;28;97486;-63
2022/03/24 01:43:53;;;;;;;15.50;13.63;;;14.60;86.60;;;15.34;41.75;102428.59;4920567;28;108808;-62
2022/03/24 01:46:22;;;;;;;14.13;11.83;;;14.70;84.70;;;15.31;42.09;102436.63;4931737;28;111426;-63
2022/03/24 01:48:49;;;;;;;16.30;13.93;;;14.60;86.50;;;15.30;42.03;102432.22;4924008;28;97065;-63
2022/03/24 01:51:15;;;;;;;11.10;9.97;;;14.60;85.80;;;15.31;42.05;102434.84;4916669;28;97069;-63
2022/03/24 01:53:40;;;;;;;19.10;15.27;;;14.60;85.60;;;15.30;41.99;102432.22;4919137;28;97489;-62
2022/03/24 01:56:07;;;;;;;11.47;10.30;;;14.60;85.40;;;15.29;42.05;102436.66;4935732;28;97374;-63
2022/03/24 01:58:37;;;;;;;15.43;13.63;;;14.50;86.00;;;15.30;41.89;102429.56;4934103;28;97476;-62
2022/03/24 02:01:29;;;;;;;27.17;21.03;;;14.60;84.90;;;15.27;42.15;102422.56;4920744;28;97231;-63
2022/03/24 02:03:57;;;;;;;13.53;11.53;;;14.50;85.10;;;15.17;42.28;102419.25;4924430;28;100859;-63
2022/03/24 02:06:24;;;;;;;24.13;19.03;;;14.30;85.50;;;15.10;42.11;102423.00;4910249;28;97557;-63
2022/03/24 02:08:50;;;;;;;14.97;12.20;;;14.20;86.00;;;15.06;42.29;102424.00;4910107;28;96766;-63
2022/03/24 02:11:17;;;;;;;15.00;11.83;;;14.10;85.90;;;15.02;42.58;102410.81;4903217;28;97384;-63
2022/03/24 02:13:51;;;;;;;13.63;12.23;;;14.10;87.30;;;14.99;42.55;102422.41;4909349;28;97137;-62
2022/03/24 02:16:16;;;;;;;13.40;11.93;;;14.10;86.30;;;14.88;42.66;102413.84;4895394;28;97018;-63
2022/03/24 02:18:44;;;;;;;17.03;14.97;;;14.00;87.50;;;14.80;42.76;102411.41;4939181;28;97604;-62
2022/03/24 02:21:14;;;;;;;13.93;11.80;;;13.80;86.90;;;14.78;42.94;102415.00;4932918;28;97325;-63
2022/03/24 02:23:42;;;;;;;30.40;23.77;;;13.70;88.40;;;14.76;42.63;102415.06;4916789;28;102482;-62
2022/03/24 02:26:09;;;;;;;26.60;22.13;;;13.80;86.80;;;14.73;42.81;102419.53;4934531;28;96926;-63
2022/03/24 02:28:35;;;;;;;16.73;14.23;;;13.70;86.10;;;14.65;43.31;102416.22;4916691;28;97382;-62
2022/03/24 02:31:01;;;;;;;13.17;11.47;;;13.60;88.20;;;14.68;43.29;102416.13;4920320;28;99443;-63
2022/03/24 02:33:27;;;;;;;17.33;13.57;;;13.70;88.30;;;14.65;43.54;102413.56;4917058;28;97201;-63
2022/03/24 02:35:53;;;;;;;13.70;12.20;;;13.60;89.00;;;14.66;43.42;102413.53;4900734;28;97001;-63
2022/03/24 02:38:19;;;;;;;15.77;13.90;;;13.70;88.10;;;14.59;43.39;102418.09;4932805;28;96972;-63
2022/03/24 02:40:49;;;;;;;15.10;12.47;;;13.60;87.70;;;14.52;43.62;102416.53;4921256;28;97428;-63
2022/03/24 02:43:20;;;;;;;12.23;10.53;;;13.50;88.90;;;14.52;43.74;102411.22;4921341;28;99611;-63
2022/03/24 02:45:49;;;;;;;16.07;12.83;;;13.50;90.00;;;14.57;43.59;102419.94;4918734;28;99980;-63
2022/03/24 02:48:15;;;;;;;16.37;13.93;;;13.60;88.90;;;14.59;43.54;102417.22;4916710;28;97453;-63
2022/03/24 02:50:41;;;;;;;17.17;15.30;;;13.60;88.50;;;14.56;43.53;102425.28;4918249;28;97992;-63
2022/03/24 02:53:08;;;;;;;15.97;13.90;;;13.60;89.10;;;14.58;43.60;102416.34;4903801;28;98187;-63
2022/03/24 02:55:34;;;;;;;16.80;13.87;;;13.60;88.90;;;14.63;43.51;102424.22;4911689;28;97268;-63
2022/03/24 02:58:01;;;;;;;21.60;18.30;;;13.70;88.20;;;14.61;43.29;102414.53;4916319;28;96953;-63
2022/03/24 03:00:27;;;;;;;28.03;21.80;;;13.70;86.90;;;14.54;43.42;102419.13;4903908;28;99253;-63
2022/03/24 03:02:53;;;;;;;14.47;12.90;;;13.60;88.60;;;14.50;43.66;102418.34;4933650;28;97153;-63
2022/03/24 03:05:20;;;;;;;14.30;12.47;;;13.50;89.70;;;14.46;43.72;102415.78;4912343;28;96736;-63
2022/03/24 03:07:47;;;;;;;20.70;17.20;;;13.40;88.80;;;14.44;43.71;102418.47;4930961;28;96994;-62
2022/03/24 03:10:14;;;;;;;12.67;10.97;;;13.40;89.00;;;14.39;43.88;102420.34;4914190;28;97446;-69
2022/03/24 03:12:44;;;;;;;12.57;10.70;;;13.30;90.30;;;14.44;43.70;102415.81;4917325;28;100634;-63
2022/03/24 03:15:15;;;;;;;15.67;12.33;;;13.50;89.80;;;14.47;43.64;102415.78;4874979;28;97261;-62
2022/03/24 03:17:41;;;;;;;16.47;13.37;;;13.60;89.10;;;14.52;43.65;102432.47;4907714;28;97200;-63
2022/03/24 03:20:10;;;;;;;21.23;17.87;;;13.60;88.20;;;14.47;43.23;102431.69;4921041;28;97109;-63
2022/03/24 03:22:36;;;;;;;18.53;15.50;;;13.50;88.00;;;14.48;43.44;102436.09;4912069;28;99101;-63
2022/03/24 03:25:03;;;;;;;12.33;11.13;;;13.50;89.00;;;14.49;43.48;102421.91;4920009;28;98737;-63
2022/03/24 03:27:31;;;;;;;14.80;11.83;;;13.50;89.70;;;14.52;43.80;102437.75;4915607;28;97055;-63
2022/03/24 03:29:57;;;;;;;17.27;14.60;;;13.60;89.60;;;14.56;43.57;102428.81;4933936;28;97368;-63
2022/03/24 03:32:24;;;;;;;20.03;17.03;;;13.70;87.70;;;14.57;43.49;102435.84;4930039;28;97850;-63
2022/03/24 03:34:50;;;;;;;16.77;13.87;;;13.60;87.80;;;14.54;43.45;102430.63;4921377;28;97679;-61
2022/03/24 03:37:16;;;;;;;13.63;10.93;;;13.60;88.80;;;14.58;43.62;102429.63;4905336;28;97443;-63
2022/03/24 03:39:42;;;;;;;12.43;11.03;;;13.70;89.50;;;14.64;43.50;102430.41;4933020;28;96878;-62
2022/03/24 03:42:08;;;;;;;12.17;10.60;;;13.80;89.70;;;14.68;43.16;102437.38;4932221;28;99130;-64
2022/03/24 03:44:34;;;;;;;15.67;13.37;;;13.80;88.20;;;14.70;43.16;102430.25;4931714;28;96928;-62
2022/03/24 03:47:01;;;;;;;12.57;10.97;;;13.90;88.00;;;14.73;43.09;102438.13;4922645;28;96840;-62
2022/03/24 03:49:27;;;;;;;11.50;10.30;;;13.90;88.70;;;14.76;43.13;102436.31;4942307;28;96618;-64
2022/03/24 03:51:53;;;;;;;15.97;14.27;;;14.00;88.60;;;14.77;42.99;102437.19;4922137;28;97390;-63
2022/03/24 03:54:20;;;;;;;14.50;12.63;;;13.90;87.10;;;14.75;42.99;102438.97;4918362;28;97069;-63
2022/03/24 03:56:46;;;;;;;16.83;14.00;;;13.90;87.20;;;14.75;43.00;102438.97;4920455;28;97037;-62
2022/03/24 03:59:12;;;;;;;12.47;10.90;;;13.80;87.60;;;14.74;42.97;102438.09;4939376;28;96755;-67
2022/03/24 04:01:38;;;;;;;11.97;10.60;;;13.80;87.40;;;14.73;43.18;102440.78;4912541;28;102759;-63
2022/03/24 04:04:06;;;;;;;12.77;11.47;;;13.80;89.00;;;14.72;43.05;102434.63;4922076;28;97134;-63
2022/03/24 04:06:32;;;;;;;11.90;10.70;;;13.80;87.90;;;14.72;43.16;102436.41;4929460;28;97067;-63
2022/03/24 04:08:58;;;;;;;18.13;14.40;;;13.80;87.80;;;14.68;43.08;102429.44;4922834;28;97579;-63
2022/03/24 04:11:25;;;;;;;17.73;11.17;;;13.70;86.90;;;14.68;43.11;102426.78;4912418;28;97016;-63
2022/03/24 04:13:51;;;;;;;13.17;11.47;;;13.70;88.40;;;14.68;43.20;102429.44;4922192;28;97476;-63
2022/03/24 04:16:17;;;;;;;16.60;13.57;;;13.70;88.60;;;14.68;43.18;102426.78;4911742;28;97349;-63
2022/03/24 04:18:46;;;;;;;21.20;18.90;;;13.70;87.50;;;14.64;43.02;102433.06;4918972;28;96903;-61
2022/03/24 04:21:12;;;;;;;18.77;14.60;;;13.70;86.90;;;14.56;43.13;102434.13;4934080;28;97421;-68
2022/03/24 04:23:40;;;;;;;20.23;17.33;;;13.60;86.50;;;14.43;43.54;102437.94;4919249;28;97097;-63
2022/03/24 04:26:07;;;;;;;11.57;10.37;;;13.30;88.20;;;14.30;43.84;102442.66;4940406;28;96800;-63
2022/03/24 04:28:33;;;;;;;14.97;12.77;;;13.10;89.40;;;14.28;44.04;102435.63;4917965;28;97050;-63
2022/03/24 04:31:00;;;;;;;17.83;15.07;;;13.10;90.20;;;14.27;43.86;102431.25;4947432;28;97049;-63
2022/03/24 04:33:25;;;;;;;14.90;13.30;;;13.10;88.70;;;14.23;44.01;102434.88;4936081;28;97299;-63
2022/03/24 04:35:52;;;;;;;24.57;19.63;;;13.10;89.30;;;14.20;43.81;102440.28;4934516;28;101705;-63
2022/03/24 04:38:18;;;;;;;12.73;11.03;;;13.00;89.50;;;14.16;44.22;102443.88;4929921;28;98626;-62
2022/03/24 04:40:44;;;;;;;14.77;12.20;;;13.00;90.00;;;14.16;44.11;102435.91;4902794;28;97250;-63
2022/03/24 04:43:10;;;;;;;17.90;13.73;;;13.00;89.50;;;14.15;44.21;102428.84;4942762;28;96942;-62
2022/03/24 04:45:36;;;;;;;14.97;12.83;;;13.00;89.50;;;14.15;44.17;102436.81;4900911;28;96932;-62
2022/03/24 04:48:03;;;;;;;16.03;14.33;;;13.00;88.90;;;14.07;44.17;102433.47;4922323;28;97349;-63
2022/03/24 04:50:30;;;;;;;19.97;16.33;;;12.90;90.10;;;14.08;44.12;102437.88;4930528;28;97123;-62
2022/03/24 04:52:57;;;;;;;24.30;17.53;;;12.90;89.90;;;14.03;44.22;102431.78;4936850;28;96619;-63
2022/03/24 04:55:23;;;;;;;19.43;14.80;;;12.90;90.00;;;14.04;44.23;102438.88;4915949;28;97187;-63
2022/03/24 04:57:49;;;;;;;14.93;11.87;;;12.80;90.10;;;14.00;44.44;102438.91;4940301;28;97643;-63
2022/03/24 05:00:17;;;;;;;20.70;15.67;;;12.90;89.60;;;13.95;44.33;102440.78;4904440;28;97415;-62
2022/03/24 05:02:45;;;;;;;11.97;10.57;;;12.80;90.30;;;13.94;44.53;102440.84;4923939;28;96952;-62
2022/03/24 05:05:11;;;;;;;13.80;11.53;;;12.80;90.70;;;13.97;44.42;102436.31;4930246;28;97222;-62
2022/03/24 05:07:38;;;;;;;12.80;10.97;;;12.90;90.40;;;14.03;44.19;102437.09;4920911;28;101397;-62
2022/03/24 05:10:05;;;;;;;16.33;13.73;;;13.00;89.30;;;13.97;44.31;102436.31;4923109;28;97219;-62
2022/03/24 05:12:31;;;;;;;15.13;13.53;;;12.90;88.80;;;13.98;44.23;102435.41;4922682;28;96951;-62
2022/03/24 05:14:58;;;;;;;17.30;11.87;;;12.80;89.90;;;14.00;44.31;102444.22;4920918;28;97794;-62
2022/03/24 05:17:24;;;;;;;14.07;11.73;;;12.80;89.40;;;13.94;44.53;102444.34;4917977;28;97468;-62
2022/03/24 05:19:52;;;;;;;16.30;14.17;;;12.80;89.50;;;13.93;44.39;102442.63;4920677;28;97302;-62
2022/03/24 05:22:18;;;;;;;15.33;12.83;;;12.80;90.40;;;13.92;44.52;102450.59;4929257;28;96726;-61
2022/03/24 05:24:44;;;;;;;16.83;13.03;;;12.70;90.00;;;13.87;44.60;102452.47;4901244;28;97059;-62
2022/03/24 05:27:10;;;;;;;11.97;10.47;;;12.70;90.10;;;13.87;44.55;102448.03;4921941;28;97416;-62
2022/03/24 05:29:38;;;;;;;14.90;13.07;;;12.70;90.70;;;13.87;44.63;102450.69;4920579;28;97219;-62
2022/03/24 05:32:05;;;;;;;12.63;10.80;;;12.80;90.50;;;13.91;44.50;102449.75;4920696;28;97328;-62
2022/03/24 05:34:32;;;;;;;11.50;10.30;;;12.80;90.20;;;13.91;44.63;102443.56;4933908;28;97586;-62
2022/03/24 05:36:58;;;;;;;21.93;16.93;;;12.80;90.40;;;13.93;44.47;102453.22;4935219;28;97755;-62
2022/03/24 05:39:24;;;;;;;17.53;14.27;;;12.80;90.00;;;13.94;44.64;102454.97;4918147;28;99291;-63
2022/03/24 05:41:50;;;;;;;16.57;12.93;;;12.80;90.40;;;13.98;44.56;102455.78;4909843;28;97223;-63
2022/03/24 05:44:16;;;;;;;15.30;12.17;;;12.90;90.30;;;14.03;44.45;102447.69;4918123;28;97005;-63
2022/03/24 05:46:44;;;;;;;14.90;12.63;;;12.90;90.50;;;14.06;44.19;102458.28;4920543;28;97603;-62
2022/03/24 05:49:17;;;;;;;11.37;10.27;;;13.00;90.10;;;14.11;44.09;102457.25;4915648;28;97163;-62
2022/03/24 05:51:44;;;;;;;12.53;10.70;;;13.10;90.30;;;14.13;44.02;102459.88;4917203;28;98096;-62
2022/03/24 05:54:15;;;;;;;11.07;9.97;;;13.10;90.20;;;14.19;43.87;102449.13;4918243;28;96964;-62
2022/03/24 05:56:45;;;;;;;13.10;10.37;;;13.20;90.40;;;14.24;43.78;102452.56;4915954;28;101721;-63
2022/03/24 05:59:13;;;;;;;12.40;10.40;;;13.30;88.90;;;14.28;43.73;102459.53;4936473;28;97109;-62
2022/03/24 06:01:46;;;;;;;13.43;11.13;;;13.30;89.80;;;14.31;43.68;102456.81;4889668;28;96945;-62
2022/03/24 06:04:15;;;;;;;36.30;21.67;;;13.30;88.80;;;14.29;43.31;102455.97;4909410;28;97162;-66
2022/03/24 06:06:43;;;;;;;14.43;10.83;;;13.30;88.20;;;14.24;43.78;102453.44;4930410;28;103749;-62
2022/03/24 06:09:09;;;;;;;14.07;11.20;;;13.20;90.50;;;14.30;43.73;102458.59;4933838;28;97156;-62
2022/03/24 06:11:36;;;;;;;13.10;9.83;;;13.30;90.00;;;14.34;43.72;102458.53;4918401;28;96888;-63
2022/03/24 06:14:04;;;;;;;14.30;12.73;;;13.40;90.30;;;14.39;43.44;102457.50;4921460;28;96860;-65
2022/03/24 06:16:30;;;;;;;13.50;11.53;;;13.50;88.40;;;14.38;43.61;102463.72;4901063;28;97384;-62
2022/03/24 06:18:56;;;;;;;16.03;12.43;;;13.40;87.70;;;14.40;43.57;102461.91;4936869;28;97590;-62
2022/03/24 06:21:23;;;;;;;11.80;9.93;;;13.40;88.70;;;14.42;43.59;102468.06;4918196;28;96843;-63
2022/03/24 06:23:50;;;;;;;13.43;11.67;;;13.40;90.10;;;14.44;43.53;102471.56;4909776;28;97488;-63
2022/03/24 06:26:18;;;;;;;18.63;14.90;;;13.50;89.00;;;14.40;43.42;102463.69;4912377;28;98034;-64
2022/03/24 06:28:43;;;;;;;26.67;19.77;;;13.40;88.90;;;14.39;43.18;102472.56;4930141;28;96892;-63
2022/03/24 06:31:09;;;;;;;14.43;12.57;;;13.30;88.60;;;14.36;43.62;102478.81;4931363;28;103568;-63
2022/03/24 06:33:35;;;;;;;13.30;10.13;;;13.30;88.80;;;14.33;43.63;102473.59;4916837;28;99928;-63
2022/03/24 06:36:01;;;;;;;13.43;10.77;;;13.20;90.20;;;14.35;43.55;102476.22;4918922;28;97727;-64
2022/03/24 06:38:27;;;;;;;18.97;15.97;;;13.30;90.40;;;14.36;43.48;102476.19;4934734;28;99081;-63
2022/03/24 06:40:53;;;;;;;15.60;12.83;;;13.40;89.10;;;14.40;43.42;102472.53;4915334;28;97323;-62
2022/03/24 06:43:19;;;;;;;12.60;9.70;;;13.40;89.70;;;14.42;43.50;102477.81;4918158;28;96981;-63
2022/03/24 06:45:45;;;;;;;12.77;10.20;;;13.50;90.30;;;14.49;43.31;102480.34;4917076;28;96839;-62
2022/03/24 06:48:11;;;;;;;10.17;8.83;;;13.60;90.10;;;14.57;43.39;102478.34;4943837;28;112199;-62
2022/03/24 06:50:38;;;;;;;15.23;12.13;;;13.80;90.30;;;14.65;43.11;102469.34;4913945;28;96921;-63
2022/03/24 06:53:04;;;;;;;11.83;10.43;;;13.90;88.30;;;14.72;43.02;102471.81;4937752;28;96798;-63
2022/03/24 06:55:31;;;;;;;10.63;9.60;;;14.00;89.60;;;14.80;42.79;102479.59;4932318;28;123388;-62
2022/03/24 06:57:57;;;;;;;12.03;10.83;;;14.10;88.10;;;14.86;42.69;102476.78;4921511;28;99806;-62
2022/03/24 07:00:27;;;;;;;10.97;9.33;;;14.20;87.90;;;14.90;42.50;102481.13;4921651;28;97758;-63
2022/03/24 07:03:12;;;;;;;11.70;10.20;;;14.20;89.00;;;14.97;42.47;102482.72;4929386;28;98237;-64
2022/03/24 07:05:40;;;;;;;10.73;9.60;;;14.30;87.90;;;15.05;42.18;102486.06;4896802;28;103046;-63
2022/03/24 07:08:07;;;;;;;12.10;9.63;;;14.50;86.70;;;15.08;41.96;102475.34;4889149;28;97139;-63
2022/03/24 07:10:33;;;;;;;10.40;9.30;;;14.50;86.50;;;15.10;42.01;102477.94;4921727;28;97466;-63
2022/03/24 07:12:59;;;;;;;11.93;9.97;;;14.50;88.80;;;15.17;41.98;102480.41;4918356;28;97222;-63
2022/03/24 07:15:25;;;;;;;11.27;10.07;;;14.60;87.70;;;15.26;41.54;102478.44;4913864;28;96652;-63
2022/03/24 07:17:52;;;;;;;15.20;12.23;;;14.80;85.60;;;15.31;41.56;102481.81;4925966;28;97087;-63
2022/03/24 07:20:18;;;;;;;14.40;12.47;;;14.80;84.50;;;15.34;41.51;102487.09;4915251;28;97882;-61
2022/03/24 07:22:48;;;;;;;10.03;9.03;;;14.80;85.10;;;15.43;41.15;102481.50;4922508;28;97158;-62
2022/03/24 07:25:14;;;;;;;11.90;9.37;;;14.90;86.70;;;15.62;40.85;102487.22;4909938;28;100186;-66
2022/03/24 07:27:42;;;;;;;15.30;12.10;;;15.30;85.50;;;15.68;40.75;102487.94;4919123;28;102027;-62
2022/03/24 07:30:10;;;;;;;17.43;12.83;;;15.40;83.30;;;15.77;40.33;102487.69;4908361;28;97095;-63
2022/03/24 07:32:38;;;;;;;10.60;9.57;;;15.50;82.10;;;15.89;40.18;102490.88;4913021;28;97074;-63
2022/03/24 07:35:05;;;;;;;30.27;24.97;;;15.70;84.00;;;15.87;40.02;102488.28;4882871;28;98409;-62
2022/03/24 07:37:33;;;;;;;29.93;22.07;;;15.60;80.30;;;15.67;40.15;102490.63;4915711;28;96943;-63
2022/03/24 07:39:59;;;;;;;10.80;9.63;;;15.20;81.20;;;15.59;40.73;102488.19;4909802;28;96729;-63
2022/03/24 07:42:25;;;;;;;11.37;9.10;;;15.10;83.80;;;15.68;40.74;102493.25;4900295;28;97018;-63
2022/03/24 07:44:52;;;;;;;10.50;9.40;;;15.20;86.00;;;15.84;40.39;102490.16;4894478;28;98768;-62
2022/03/24 07:47:18;;;;;;;11.27;10.07;;;15.50;84.80;;;15.94;40.13;102491.66;4926231;28;97063;-63
2022/03/24 07:49:45;;;;;;;11.77;10.33;;;15.80;84.00;;;15.93;40.04;102488.13;4921038;28;96683;-63
2022/03/24 07:52:17;;;;;;;10.87;9.70;;;15.70;81.70;;;16.04;39.76;102491.31;4927675;28;96680;-63
2022/03/24 07:55:05;;;;;;;10.57;9.47;;;15.90;83.40;;;16.17;39.57;102486.50;4907577;28;104572;-63
2022/03/24 07:57:31;;;;;;;11.30;10.10;;;16.10;82.90;;;16.16;39.47;102492.75;4920466;28;97377;-63
2022/03/24 07:59:58;;;;;;;11.30;9.03;;;16.10;82.30;;;16.18;39.40;102496.22;4942217;28;97321;-63
2022/03/24 08:02:24;;;;;;;38.17;30.60;;;16.00;80.90;;;16.10;39.12;102497.38;4923472;28;97423;-63
2022/03/24 08:04:52;;;;;;;24.53;20.50;;;15.90;80.40;;;15.94;39.73;102504.97;4919530;28;112592;-63
2022/03/24 08:07:18;;;;;;;21.20;16.60;;;15.50;81.10;;;15.82;39.87;102505.28;4913316;28;97162;-63
2022/03/24 08:09:48;;;;;;;15.33;11.83;;;15.30;82.80;;;15.74;40.33;102498.38;4916317;28;96857;-63
2022/03/24 08:12:13;;;;;;;43.20;30.53;;;15.20;83.60;;;15.53;37.96;102496.31;4923275;28;97294;-66
2022/03/24 08:14:40;;;;;;;14.33;12.23;;;15.00;80.90;;;15.43;41.04;102497.47;4910588;28;101839;-63
2022/03/24 08:17:10;;;;;;;43.37;32.20;;;14.80;83.50;;;15.26;38.26;102500.56;4930309;28;98356;-62
2022/03/24 08:19:36;;;;;;;11.87;10.53;;;14.60;80.80;;;15.34;41.43;102503.91;4909029;28;98659;-63
2022/03/24 08:22:02;;;;;;;39.47;29.90;;;14.80;86.90;;;15.36;40.96;102495.91;4912817;28;97313;-62
2022/03/24 08:24:32;;;;;;;33.27;24.23;;;14.90;82.30;;;15.14;40.95;102507.06;4902308;28;98177;-63
2022/03/24 08:26:59;;;;;;;40.17;26.67;;;14.60;81.90;;;15.17;41.34;102504.31;4901252;28;97048;-68
2022/03/24 08:29:25;;;;;;;17.57;14.13;;;14.60;84.30;;;15.23;41.32;102505.09;4893419;28;97775;-63
2022/03/24 08:31:52;;;;;;;45.73;32.97;;;14.70;84.80;;;15.18;40.27;102507.84;4893444;28;102283;-62
2022/03/24 08:34:18;;;;;;;10.87;9.77;;;14.70;82.50;;;15.38;41.40;102507.34;4903318;28;102926;-63
2022/03/24 08:36:44;;;;;;;11.97;10.67;;;15.00;86.70;;;15.59;41.10;102508.56;4895155;28;98195;-62
2022/03/24 08:39:09;;;;;;;37.13;29.53;;;15.40;85.40;;;15.74;40.33;102514.34;4916584;28;97735;-62
2022/03/24 08:41:35;;;;;;;39.17;30.47;;;15.60;81.00;;;15.77;40.33;102516.94;4910761;28;99296;-63
2022/03/24 08:44:01;;;;;;;52.90;35.73;;;15.60;81.40;;;15.69;38.47;102510.09;4907041;28;97526;-61
2022/03/24 08:46:27;;;;;;;47.93;35.30;;;15.40;80.00;;;15.66;39.34;102511.06;4901068;28;98758;-63
2022/03/24 08:48:54;;;;;;;49.07;35.90;;;15.40;80.70;;;15.50;39.37;102504.38;4908452;28;97880;-63
2022/03/24 08:51:21;;;;;;;46.63;35.93;;;15.10;80.50;;;15.34;39.34;102508.34;4906705;28;97470;-63
2022/03/24 08:53:48;;;;;;;49.03;36.20;;;14.90;80.70;;;15.29;40.52;102516.44;4908015;28;100689;-62
2022/03/24 08:56:15;;;;;;;45.97;33.27;;;14.80;81.80;;;15.21;41.23;102515.78;4901697;28;98203;-67
2022/03/24 08:58:41;;;;;;;50.40;35.67;;;14.70;83.70;;;15.07;40.77;102510.81;4906796;28;97644;-61
2022/03/24 09:01:07;;;;;;;48.63;36.67;;;14.60;83.40;;;14.99;40.13;102512.78;4907210;28;98435;-62
2022/03/24 09:03:32;;;;;;;51.40;35.93;;;14.50;83.30;;;14.84;40.04;102502.50;4903187;28;97614;-62
2022/03/24 09:05:58;;;;;;;48.37;34.30;;;14.40;82.00;;;14.82;40.89;102507.88;4908702;28;97634;-61
2022/03/24 09:08:24;;;;;;;54.97;37.87;;;14.30;82.00;;;14.91;41.56;102512.09;4903943;28;97355;-62
2022/03/24 09:10:51;;;;;;;55.30;38.80;;;14.40;84.20;;;14.84;39.98;102506.03;4906392;28;98785;-63
2022/03/24 09:13:17;;;;;;;51.07;37.43;;;14.40;81.80;;;14.72;39.05;102498.38;4922147;28;97330;-63
2022/03/24 09:15:44;;;;;;;53.17;36.87;;;14.30;81.90;;;14.74;40.36;102501.84;4910776;28;97108;-63
2022/03/24 09:18:13;;;;;;;53.13;36.90;;;14.30;82.10;;;14.72;40.57;102516.97;4903201;28;96990;-63
2022/03/24 09:20:39;;;;;;;53.90;37.77;;;14.30;83.30;;;14.74;40.48;102514.25;4912437;28;96995;-63
2022/03/24 09:23:07;;;;;;;51.60;37.13;;;14.30;83.00;;;14.73;39.39;102515.19;4929229;28;100560;-62
2022/03/24 09:25:33;;;;;;;54.30;37.60;;;14.40;81.40;;;14.67;39.15;102513.56;4906297;28;98806;-63
2022/03/24 09:27:59;;;;;;;50.77;37.70;;;14.40;81.80;;;14.66;39.10;102513.59;4897545;28;97592;-63
2022/03/24 09:30:25;;;;;;;51.67;38.17;;;14.40;81.50;;;14.62;38.58;102511.91;4904420;28;104519;-62
2022/03/24 09:32:52;;;;;;;52.70;38.57;;;14.40;80.80;;;14.59;38.85;102512.84;4922348;28;97472;-62
2022/03/24 09:35:18;;;;;;;45.23;35.50;;;14.30;80.40;;;14.86;41.85;102512.19;4919535;28;97657;-63
2022/03/24 09:37:45;;;;;;;52.17;37.50;;;14.60;83.70;;;14.92;36.67;102507.66;4922888;28;97546;-62
2022/03/24 09:40:12;;;;;;;51.17;38.30;;;14.70;77.30;;;15.05;41.16;102507.31;4924526;28;97006;-63
2022/03/24 09:42:39;;;;;;;50.83;37.37;;;14.80;81.50;;;15.15;39.05;102508.81;4918509;28;102884;-63
2022/03/24 09:45:07;;;;;;;37.13;29.03;;;14.90;79.30;;;15.34;41.07;102511.03;4935613;28;96717;-62
2022/03/24 09:47:33;;;;;;;49.70;35.10;;;15.10;84.70;;;15.51;40.68;102510.56;4916916;28;97013;-62
2022/03/24 09:49:59;;;;;;;54.77;35.70;;;15.40;83.00;;;15.51;36.30;102506.13;4924942;28;97354;-63
2022/03/24 09:52:26;;;;;;;45.70;33.03;;;15.50;76.00;;;15.61;40.00;102510.28;4919281;28;97994;-63
2022/03/24 09:54:53;;;;;;;37.10;28.67;;;15.50;80.40;;;15.79;40.24;102516.03;4932355;28;97053;-63
2022/03/24 09:57:20;;;;;;;52.13;38.00;;;15.70;82.60;;;15.90;39.82;102513.91;4921387;28;96705;-63
2022/03/24 09:59:46;;;;;;;51.77;38.00;;;15.80;81.20;;;15.93;36.05;102508.53;4931670;28;97268;-63
2022/03/24 10:02:12;;;;;;;47.37;35.60;;;15.90;74.50;;;15.93;35.76;102508.53;4953107;28;122238;-63